Ardmore, North Carolina
Current Conditions -  °F | °C
As of 12:54 AM on Sunday 23 Nov 2014 (Local Time) from KINT Reporting Station
Overcast Overcast  
Wind Chill: 42°   Ceiling: 4400
Heat Index: 42°   Visibility: 10mi
Dew Point: 26°   Wind: 0mph
Humidity: 53%   Direction: NA
Pressure: 30.3"   Gusts: NA
Location:  36.0595°N, 80.3192°W
Report Text: KINT 230554Z AUTO 00000KT 10SM OVC044 06/M03 A3030 RMK AO2 SLP262 T00561033 10078 20017 57013
Loading
Personal Weather Stations






























Interactive Weather Map New forecast layout! Learn more

10-Day Weather Forecast

Advertisements
Track Severe Weather on mobile